createdAt,value
2022-12-12T00:00:22.036Z,981.7
2022-12-12T00:02:48.109Z,981.6
2022-12-12T00:05:14.226Z,981.6
2022-12-12T00:07:40.330Z,981.7
2022-12-12T00:10:06.419Z,981.7
2022-12-12T00:12:32.509Z,981.6
2022-12-12T00:14:58.608Z,981.6
2022-12-12T00:17:24.711Z,981.7
2022-12-12T00:19:50.807Z,981.6
2022-12-12T00:22:16.895Z,981.6
2022-12-12T00:24:43.006Z,981.6
2022-12-12T00:27:09.101Z,981.7
2022-12-12T00:29:34.219Z,981.6
2022-12-12T00:32:00.294Z,981.6
2022-12-12T00:34:26.460Z,981.6
2022-12-12T00:36:52.502Z,981.7
2022-12-12T00:39:18.617Z,981.7
2022-12-12T00:41:44.695Z,981.7
2022-12-12T00:44:10.786Z,981.7
2022-12-12T00:46:36.882Z,981.7
2022-12-12T00:49:03.003Z,981.7
2022-12-12T00:51:29.086Z,981.7
2022-12-12T00:53:55.184Z,981.7
2022-12-12T00:56:21.279Z,981.7
2022-12-12T00:58:47.365Z,981.7
2022-12-12T01:01:12.485Z,981.7
2022-12-12T01:03:38.585Z,981.7
2022-12-12T01:06:04.678Z,981.8
2022-12-12T01:08:30.779Z,981.7
2022-12-12T01:10:56.887Z,981.7
2022-12-12T01:13:22.970Z,981.7
2022-12-12T01:15:49.074Z,981.7
2022-12-12T01:18:15.175Z,981.8
2022-12-12T01:20:41.272Z,981.8
2022-12-12T01:23:07.369Z,981.8
2022-12-12T01:25:33.463Z,981.8
2022-12-12T01:27:59.563Z,981.8
2022-12-12T01:30:25.671Z,981.8
2022-12-12T01:32:50.774Z,981.7
2022-12-12T01:35:16.874Z,981.8
2022-12-12T01:37:42.960Z,981.8
2022-12-12T01:40:09.047Z,981.8
2022-12-12T01:42:35.143Z,981.7
2022-12-12T01:45:01.245Z,981.8
2022-12-12T01:47:27.377Z,981.7
2022-12-12T01:49:53.454Z,981.7
2022-12-12T01:52:19.569Z,981.7
2022-12-12T01:54:45.641Z,981.7
2022-12-12T01:57:11.723Z,981.8
2022-12-12T01:59:37.825Z,981.7
2022-12-12T02:02:03.921Z,981.8
2022-12-12T02:04:29.052Z,981.8
2022-12-12T02:06:55.140Z,981.8
2022-12-12T02:09:21.232Z,981.8
2022-12-12T02:11:47.365Z,981.8
2022-12-12T02:14:13.433Z,981.8
2022-12-12T02:16:39.535Z,981.9
2022-12-12T02:19:05.683Z,981.9
2022-12-12T02:21:31.721Z,981.9
2022-12-12T02:23:57.811Z,981.9
2022-12-12T02:26:23.914Z,981.9
2022-12-12T02:28:50.020Z,981.9
2022-12-12T02:31:16.105Z,981.9
2022-12-12T02:33:42.217Z,981.9
2022-12-12T02:36:07.332Z,981.8
2022-12-12T02:38:33.425Z,981.8
2022-12-12T02:40:59.526Z,981.8
2022-12-12T02:43:25.610Z,981.8
2022-12-12T02:45:51.713Z,981.8
2022-12-12T02:48:17.804Z,981.8
2022-12-12T02:50:43.915Z,981.8
2022-12-12T02:53:09.994Z,981.8
2022-12-12T02:55:36.095Z,981.9
2022-12-12T02:58:02.230Z,981.9
2022-12-12T03:00:28.299Z,981.9
2022-12-12T03:02:54.396Z,982
2022-12-12T03:05:20.479Z,982
2022-12-12T03:07:45.613Z,981.9
2022-12-12T03:10:11.693Z,981.9
2022-12-12T03:12:37.787Z,982
2022-12-12T03:15:03.881Z,981.9
2022-12-12T03:17:29.979Z,982
2022-12-12T03:19:56.084Z,982
2022-12-12T03:22:22.195Z,982
2022-12-12T03:24:48.295Z,982
2022-12-12T03:27:14.405Z,982
2022-12-12T03:29:40.485Z,982
2022-12-12T03:32:06.569Z,982
2022-12-12T03:34:32.677Z,982
2022-12-12T03:36:58.765Z,982
2022-12-12T03:39:23.906Z,982
2022-12-12T03:41:49.984Z,982
2022-12-12T03:44:16.067Z,982
2022-12-12T03:46:42.170Z,982
2022-12-12T03:49:08.270Z,982.1
2022-12-12T03:51:34.375Z,982.1
2022-12-12T03:54:00.464Z,982.1
2022-12-12T03:56:26.550Z,982
2022-12-12T03:58:52.638Z,982.1
2022-12-12T04:01:18.772Z,982.1
2022-12-12T04:03:44.855Z,982.2
2022-12-12T04:06:10.943Z,982.1
2022-12-12T04:08:37.084Z,982.1
2022-12-12T04:11:02.200Z,982.1
2022-12-12T04:13:28.257Z,982.1
2022-12-12T04:15:54.350Z,982.2
2022-12-12T04:18:20.459Z,982.2
2022-12-12T04:20:46.538Z,982.2
2022-12-12T04:23:12.631Z,982.2
2022-12-12T04:25:38.730Z,982.2
2022-12-12T04:28:04.829Z,982.2
2022-12-12T04:30:30.929Z,982.2
2022-12-12T04:32:57.045Z,982.2
2022-12-12T04:35:23.117Z,982.3
2022-12-12T04:37:49.224Z,982.3
2022-12-12T04:40:15.327Z,982.3
2022-12-12T04:42:40.504Z,982.3
2022-12-12T04:45:06.537Z,982.3
2022-12-12T04:47:32.625Z,982.3
2022-12-12T04:49:58.724Z,982.4
2022-12-12T04:52:24.830Z,982.4
2022-12-12T04:54:50.906Z,982.4
2022-12-12T04:57:16.025Z,982.4
2022-12-12T04:59:42.127Z,982.4
2022-12-12T05:02:08.235Z,982.4
2022-12-12T05:04:34.320Z,982.5
2022-12-12T05:07:00.425Z,982.5
2022-12-12T05:09:26.527Z,982.4
2022-12-12T05:11:52.617Z,982.4
2022-12-12T05:14:18.712Z,982.5
2022-12-12T05:16:44.799Z,982.6
2022-12-12T05:19:10.897Z,982.5
2022-12-12T05:21:37.010Z,982.6
2022-12-12T05:24:03.098Z,982.6
2022-12-12T05:26:29.285Z,982.6
2022-12-12T05:28:55.309Z,982.6
2022-12-12T05:31:21.388Z,982.6
2022-12-12T05:33:47.494Z,982.7
2022-12-12T05:36:13.588Z,982.6
2022-12-12T05:38:39.681Z,982.6
2022-12-12T05:41:04.800Z,982.6
2022-12-12T05:43:30.912Z,982.7
2022-12-12T05:45:57.001Z,982.7
2022-12-12T05:48:23.088Z,982.7
2022-12-12T05:50:49.188Z,982.7
2022-12-12T05:53:15.277Z,982.7
2022-12-12T05:55:41.481Z,982.7
2022-12-12T05:58:07.523Z,982.7
2022-12-12T06:00:33.577Z,982.7
2022-12-12T06:02:59.670Z,982.8
2022-12-12T06:05:25.776Z,982.8
2022-12-12T06:07:51.869Z,982.8
2022-12-12T06:10:17.978Z,982.8
2022-12-12T06:12:43.086Z,982.8
2022-12-12T06:15:09.190Z,982.8
2022-12-12T06:17:35.283Z,982.8
2022-12-12T06:20:01.383Z,982.9
2022-12-12T06:22:27.484Z,982.9
2022-12-12T06:24:53.577Z,982.9
2022-12-12T06:27:19.662Z,982.9
2022-12-12T06:29:45.787Z,982.9
2022-12-12T06:32:11.867Z,982.9
2022-12-12T06:34:37.975Z,982.9
2022-12-12T06:37:04.063Z,983
2022-12-12T06:39:30.313Z,983
2022-12-12T06:41:56.287Z,983
2022-12-12T06:44:21.366Z,983
2022-12-12T06:46:47.478Z,983.1
2022-12-12T06:49:13.558Z,983.1
2022-12-12T06:51:39.671Z,983
2022-12-12T06:54:05.794Z,983
2022-12-12T06:56:31.885Z,983
2022-12-12T06:58:57.959Z,983.1
2022-12-12T07:01:24.039Z,983.1
2022-12-12T07:03:50.167Z,983.2
2022-12-12T07:06:16.249Z,983.1
2022-12-12T07:08:42.353Z,983.2
2022-12-12T07:11:08.471Z,983.2
2022-12-12T07:13:34.569Z,983.2
2022-12-12T07:15:59.664Z,983.2
2022-12-12T07:18:25.746Z,983.2
2022-12-12T07:20:51.857Z,983.3
2022-12-12T07:23:18.021Z,983.2
2022-12-12T07:25:44.067Z,983.3
2022-12-12T07:28:10.196Z,983.2
2022-12-12T07:30:36.240Z,983.3
2022-12-12T07:33:02.345Z,983.3
2022-12-12T07:35:28.496Z,983.3
2022-12-12T07:37:54.595Z,983.4
2022-12-12T07:40:20.649Z,983.4
2022-12-12T07:42:46.787Z,983.5
2022-12-12T07:45:12.916Z,983.5
2022-12-12T07:47:37.968Z,983.5
2022-12-12T07:50:04.038Z,983.5
2022-12-12T07:52:30.130Z,983.5
2022-12-12T07:54:56.283Z,983.5
2022-12-12T07:57:22.322Z,983.6
2022-12-12T07:59:48.478Z,983.5
2022-12-12T08:02:14.566Z,983.6
2022-12-12T08:04:40.618Z,983.6
2022-12-12T08:07:06.772Z,983.6
2022-12-12T08:09:32.930Z,983.5
2022-12-12T08:11:58.935Z,983.6
2022-12-12T08:14:24.996Z,983.5
2022-12-12T08:16:51.532Z,983.5
2022-12-12T08:19:16.218Z,983.5
2022-12-12T08:21:42.399Z,983.6
2022-12-12T08:24:08.427Z,983.6
2022-12-12T08:26:34.563Z,983.6
2022-12-12T08:29:00.610Z,983.6
2022-12-12T08:31:26.705Z,983.7
2022-12-12T08:33:52.809Z,983.7
2022-12-12T08:36:18.896Z,983.7
2022-12-12T08:38:45.006Z,983.8
2022-12-12T08:41:11.097Z,983.8
2022-12-12T08:43:37.190Z,983.8
2022-12-12T08:46:03.297Z,983.8
2022-12-12T08:48:29.394Z,983.8
2022-12-12T08:50:54.500Z,983.9
2022-12-12T08:53:20.590Z,983.9
2022-12-12T08:55:46.722Z,983.9
2022-12-12T08:58:12.784Z,983.9
2022-12-12T09:00:38.880Z,983.9
2022-12-12T09:03:04.998Z,983.9
2022-12-12T09:05:31.071Z,983.9
2022-12-12T09:07:57.178Z,983.9
2022-12-12T09:10:23.291Z,983.9
2022-12-12T09:12:49.378Z,983.9
2022-12-12T09:15:15.466Z,983.9
2022-12-12T09:17:41.570Z,983.9
2022-12-12T09:20:07.660Z,983.9
2022-12-12T09:22:32.776Z,983.9
2022-12-12T09:24:58.910Z,983.9
2022-12-12T09:27:24.969Z,984.1
2022-12-12T09:29:51.088Z,984
2022-12-12T09:32:17.164Z,984
2022-12-12T09:34:43.270Z,984.1
2022-12-12T09:37:09.365Z,984.1
2022-12-12T09:39:35.500Z,984.2
2022-12-12T09:42:01.558Z,984.2
2022-12-12T09:44:27.648Z,984.2
2022-12-12T09:46:53.762Z,984.2
2022-12-12T09:49:19.849Z,984.2
2022-12-12T09:51:45.949Z,984.2
2022-12-12T09:54:11.083Z,984.1
2022-12-12T09:56:37.168Z,984.2
2022-12-12T09:59:03.257Z,984.1
2022-12-12T10:01:29.360Z,984.1
2022-12-12T10:03:55.440Z,984
2022-12-12T10:06:21.562Z,984
2022-12-12T10:08:47.647Z,984
2022-12-12T10:11:13.747Z,984
2022-12-12T10:13:39.842Z,984
2022-12-12T10:16:05.928Z,983.9
2022-12-12T10:18:32.103Z,983.9
2022-12-12T10:20:58.129Z,983.9
2022-12-12T10:23:24.270Z,983.9
2022-12-12T10:25:49.434Z,983.9
2022-12-12T10:28:15.439Z,983.9
2022-12-12T10:30:41.539Z,983.9
2022-12-12T10:33:07.647Z,983.8
2022-12-12T10:35:33.770Z,983.9
2022-12-12T10:37:59.964Z,983.8
2022-12-12T10:40:25.937Z,983.8
2022-12-12T10:42:52.031Z,983.8
2022-12-12T10:45:18.146Z,983.8
2022-12-12T10:47:44.332Z,983.8
2022-12-12T10:50:10.311Z,983.7
2022-12-12T10:52:36.418Z,983.7
2022-12-12T10:55:02.517Z,983.8
2022-12-12T10:57:27.615Z,983.8
2022-12-12T10:59:53.721Z,983.8
2022-12-12T11:02:19.809Z,983.8
2022-12-12T11:04:45.922Z,983.8
2022-12-12T11:07:12.091Z,983.7
2022-12-12T11:09:38.100Z,983.7
2022-12-12T11:12:04.369Z,983.7
2022-12-12T11:14:30.301Z,983.7
2022-12-12T11:16:56.419Z,983.7
2022-12-12T11:19:22.498Z,983.8
2022-12-12T11:21:48.650Z,983.8
2022-12-12T11:24:14.705Z,983.7
2022-12-12T11:26:40.795Z,983.7
2022-12-12T11:29:05.912Z,983.7
2022-12-12T11:31:32.006Z,983.6
2022-12-12T11:33:58.085Z,983.6
2022-12-12T11:36:24.200Z,983.6
2022-12-12T11:38:50.278Z,983.5
2022-12-12T11:41:16.395Z,983.5
2022-12-12T11:43:42.519Z,983.5
2022-12-12T11:46:08.579Z,983.5
2022-12-12T11:48:34.681Z,983.5
2022-12-12T11:51:00.864Z,983.6
2022-12-12T11:53:26.912Z,983.5
2022-12-12T11:55:52.978Z,983.6
2022-12-12T11:58:19.065Z,983.5
2022-12-12T12:00:44.287Z,983.5
2022-12-12T12:03:10.318Z,983.5
2022-12-12T12:05:36.381Z,983.5
2022-12-12T12:08:02.474Z,983.4
2022-12-12T12:10:28.561Z,983.4
2022-12-12T12:12:54.670Z,983.4
2022-12-12T12:15:20.817Z,983.4
2022-12-12T12:17:46.843Z,983.4
2022-12-12T12:20:12.951Z,983.4
2022-12-12T12:22:39.069Z,983.4
2022-12-12T12:25:05.141Z,983.3
2022-12-12T12:27:31.254Z,983.3
2022-12-12T12:29:57.350Z,983.2
2022-12-12T12:32:22.466Z,983.3
2022-12-12T12:34:48.555Z,983.3
2022-12-12T12:37:14.653Z,983.3
2022-12-12T12:39:40.745Z,983.3
2022-12-12T12:42:06.850Z,983.2
2022-12-12T12:44:32.951Z,983.2
2022-12-12T12:46:59.105Z,983.2
2022-12-12T12:49:25.139Z,983.1
2022-12-12T12:51:51.223Z,983.2
2022-12-12T12:54:17.332Z,983.2
2022-12-12T12:56:43.461Z,983.2
2022-12-12T12:59:09.531Z,983.2
2022-12-12T13:01:35.627Z,983.2
2022-12-12T13:04:00.766Z,983.2
2022-12-12T13:06:25.885Z,983.2
2022-12-12T13:08:52.130Z,983.1
2022-12-12T13:11:18.105Z,983.1
2022-12-12T13:13:44.147Z,983.2
2022-12-12T13:16:10.360Z,983.2
2022-12-12T13:18:36.340Z,983.1
2022-12-12T13:21:02.508Z,983.1
2022-12-12T13:23:28.538Z,983.2
2022-12-12T13:25:54.643Z,983.1
2022-12-12T13:28:20.726Z,983.1
2022-12-12T13:30:47.021Z,983.2
2022-12-12T13:33:13.096Z,983.1
2022-12-12T13:35:39.030Z,983.1
2022-12-12T13:38:04.146Z,983.1
2022-12-12T13:40:30.251Z,983.1
2022-12-12T13:42:56.333Z,983
2022-12-12T13:45:22.561Z,983
2022-12-12T13:47:48.539Z,983
2022-12-12T13:50:14.668Z,983
2022-12-12T13:52:40.720Z,983.1
2022-12-12T13:55:06.822Z,983.1
2022-12-12T13:57:32.916Z,983
2022-12-12T13:59:59.071Z,983.1
2022-12-12T14:02:25.115Z,983.1
2022-12-12T14:04:51.208Z,983
2022-12-12T14:07:17.295Z,983
2022-12-12T14:09:42.425Z,983
2022-12-12T14:12:08.536Z,983
2022-12-12T14:14:34.619Z,983
2022-12-12T14:17:00.765Z,983
2022-12-12T14:19:26.806Z,983
2022-12-12T14:21:53.006Z,983
2022-12-12T14:24:18.995Z,983.1
2022-12-12T14:26:45.131Z,983.1
2022-12-12T14:29:11.206Z,983.2
2022-12-12T14:31:37.304Z,983.1
2022-12-12T14:34:03.422Z,983.2
2022-12-12T14:36:29.495Z,983.1
2022-12-12T14:38:55.574Z,983.1
2022-12-12T14:41:20.702Z,983.1
2022-12-12T14:43:46.887Z,983.1
2022-12-12T14:46:12.919Z,983.2
2022-12-12T14:48:39.016Z,983.1
2022-12-12T14:51:05.111Z,983.2
2022-12-12T14:53:31.183Z,983.1
2022-12-12T14:55:57.276Z,983.1
2022-12-12T14:58:23.379Z,983.1
2022-12-12T15:00:49.472Z,983.1
2022-12-12T15:03:15.578Z,983
2022-12-12T15:05:41.777Z,983.1
2022-12-12T15:08:07.782Z,983.1
2022-12-12T15:10:33.877Z,983
2022-12-12T15:12:58.990Z,983
2022-12-12T15:15:25.080Z,982.9
2022-12-12T15:17:51.317Z,983
2022-12-12T15:20:17.446Z,983
2022-12-12T15:22:43.371Z,983
2022-12-12T15:25:09.542Z,983
2022-12-12T15:27:35.588Z,982.9
2022-12-12T15:30:01.678Z,982.9
2022-12-12T15:32:27.839Z,982.9
2022-12-12T15:34:53.956Z,982.9
2022-12-12T15:37:19.960Z,983
2022-12-12T15:39:46.044Z,983.1
2022-12-12T15:42:12.145Z,983.1
2022-12-12T15:44:37.314Z,983.1
2022-12-12T15:49:29.510Z,983
2022-12-12T15:51:55.560Z,983.1
2022-12-12T15:54:21.642Z,983.1
2022-12-12T15:56:47.742Z,983.2
2022-12-12T15:59:13.851Z,983.1
2022-12-12T16:01:39.950Z,983.1
2022-12-12T16:04:06.038Z,983.2
2022-12-12T16:06:32.193Z,983.2
2022-12-12T16:08:58.273Z,983.2
2022-12-12T16:11:24.351Z,983.1
2022-12-12T16:13:50.446Z,983.1
2022-12-12T16:16:15.547Z,983.1
2022-12-12T16:18:41.647Z,983.1
2022-12-12T16:21:07.741Z,983.1
2022-12-12T16:23:33.836Z,983.1
2022-12-12T16:26:00.000Z,983.1
2022-12-12T16:28:26.032Z,983.2
2022-12-12T16:30:52.215Z,983.1
2022-12-12T16:33:18.233Z,983.2
2022-12-12T16:35:44.322Z,983.2
2022-12-12T16:38:10.436Z,983.2
2022-12-12T16:40:36.521Z,983.3
2022-12-12T16:43:02.641Z,983.2
2022-12-12T16:45:28.730Z,983.3
2022-12-12T16:47:53.945Z,983.3
2022-12-12T16:50:19.944Z,983.4
2022-12-12T16:55:12.112Z,983.5
2022-12-12T16:57:38.265Z,983.4
2022-12-12T17:00:04.323Z,983.5
2022-12-12T17:02:30.421Z,983.5
2022-12-12T17:04:56.516Z,983.5
2022-12-12T17:07:22.632Z,983.5
2022-12-12T17:09:48.701Z,983.5
2022-12-12T17:12:14.795Z,983.6
2022-12-12T17:14:40.896Z,983.6
2022-12-12T17:17:06.988Z,983.7
2022-12-12T17:19:32.116Z,983.7
2022-12-12T17:21:58.353Z,983.6
2022-12-12T17:24:24.392Z,983.6
2022-12-12T17:26:50.407Z,983.5
2022-12-12T17:29:16.488Z,983.5
2022-12-12T17:31:42.598Z,983.4
2022-12-12T17:34:08.687Z,983.3
2022-12-12T17:36:34.829Z,983.4
2022-12-12T17:39:00.883Z,983.3
2022-12-12T17:41:26.979Z,983.4
2022-12-12T17:43:53.080Z,983.4
2022-12-12T17:46:19.188Z,983.3
2022-12-12T17:48:45.271Z,983.3
2022-12-12T17:51:10.401Z,983.4
2022-12-12T17:53:36.497Z,983.4
2022-12-12T17:56:02.608Z,983.4
2022-12-12T17:58:28.692Z,983.4
2022-12-12T18:00:54.771Z,983.4
2022-12-12T18:03:20.875Z,983.3
2022-12-12T18:05:46.977Z,983.3
2022-12-12T18:08:13.070Z,983.3
2022-12-12T18:10:39.180Z,983.4
2022-12-12T18:13:05.281Z,983.5
2022-12-12T18:15:31.389Z,983.4
2022-12-12T18:17:57.467Z,983.5
2022-12-12T18:20:23.561Z,983.4
2022-12-12T18:22:48.676Z,983.5
2022-12-12T18:25:14.784Z,983.4
2022-12-12T18:27:40.881Z,983.5
2022-12-12T18:30:07.117Z,983.5
2022-12-12T18:32:33.069Z,983.4
2022-12-12T18:34:59.153Z,983.5
2022-12-12T18:37:25.261Z,983.4
2022-12-12T18:44:43.603Z,983.4
2022-12-12T18:47:09.648Z,983.4
2022-12-12T18:49:35.749Z,983.4
2022-12-12T18:52:01.850Z,983.4
2022-12-12T18:54:26.963Z,983.5
2022-12-12T18:56:53.138Z,983.5
2022-12-12T18:59:19.198Z,983.4
2022-12-12T19:01:45.269Z,983.5
2022-12-12T19:04:11.354Z,983.5
2022-12-12T19:06:37.485Z,983.5
2022-12-12T19:09:03.548Z,983.4
2022-12-12T19:11:29.657Z,983.5
2022-12-12T19:13:55.756Z,983.5
2022-12-12T19:16:21.884Z,983.5
2022-12-12T19:18:47.962Z,983.4
2022-12-12T19:21:14.053Z,983.5
2022-12-12T19:23:40.158Z,983.4
2022-12-12T19:26:05.267Z,983.4
2022-12-12T19:28:31.365Z,983.4
2022-12-12T19:30:57.465Z,983.4
2022-12-12T19:33:23.573Z,983.4
2022-12-12T19:35:49.667Z,983.4
2022-12-12T19:38:15.758Z,983.4
2022-12-12T19:40:41.862Z,983.3
2022-12-12T19:43:07.955Z,983.3
2022-12-12T19:45:34.118Z,983.3
2022-12-12T19:48:00.177Z,983.3
2022-12-12T19:50:26.252Z,983.3
2022-12-12T19:52:52.348Z,983.3
2022-12-12T19:55:18.452Z,983.3
2022-12-12T19:57:43.558Z,983.3
2022-12-12T20:00:09.760Z,983.3
2022-12-12T20:02:35.825Z,983.3
2022-12-12T20:05:01.879Z,983.4
2022-12-12T20:07:28.027Z,983.3
2022-12-12T20:09:54.248Z,983.4
2022-12-12T20:12:20.198Z,983.4
2022-12-12T20:14:46.257Z,983.3
2022-12-12T20:17:12.358Z,983.4
2022-12-12T20:19:38.477Z,983.3
2022-12-12T20:22:04.558Z,983.3
2022-12-12T20:24:30.638Z,983.4
2022-12-12T20:26:56.803Z,983.3
2022-12-12T20:29:21.867Z,983.4
2022-12-12T20:31:47.982Z,983.3
2022-12-12T20:34:14.051Z,983.4
2022-12-12T20:36:40.196Z,983.4
2022-12-12T20:39:06.384Z,983.4
2022-12-12T20:41:32.395Z,983.4
2022-12-12T20:43:58.522Z,983.4
2022-12-12T20:46:24.544Z,983.3
2022-12-12T20:48:50.657Z,983.3
2022-12-12T20:51:16.770Z,983.3
2022-12-12T20:53:42.839Z,983.3
2022-12-12T20:56:08.965Z,983.3
2022-12-12T20:58:35.046Z,983.3
2022-12-12T21:01:00.286Z,983.3
2022-12-12T21:03:26.340Z,983.3
2022-12-12T21:05:52.358Z,983.4
2022-12-12T21:08:18.465Z,983.3
2022-12-12T21:10:44.591Z,983.4
2022-12-12T21:13:10.670Z,983.3
2022-12-12T21:15:35.834Z,983.3
2022-12-12T21:18:01.864Z,983.2
2022-12-12T21:20:28.015Z,983.3
2022-12-12T21:22:54.085Z,983.3
2022-12-12T21:25:20.157Z,983.2
2022-12-12T21:27:46.268Z,983.2
2022-12-12T21:30:12.366Z,983.3
2022-12-12T21:32:38.481Z,983.2
2022-12-12T21:35:04.587Z,983.2
2022-12-12T21:37:30.657Z,983.2
2022-12-12T21:39:56.810Z,983.2
2022-12-12T21:42:22.913Z,983.1
2022-12-12T21:44:49.022Z,983.1
2022-12-12T21:47:14.058Z,983.1
2022-12-12T21:49:40.172Z,983.1
2022-12-12T21:52:06.355Z,983.1
2022-12-12T21:54:32.478Z,983
2022-12-12T21:56:58.456Z,983
2022-12-12T21:59:24.554Z,983
2022-12-12T22:01:50.739Z,982.9
2022-12-12T22:04:16.782Z,983
2022-12-12T22:06:42.905Z,983
2022-12-12T22:09:08.960Z,983
2022-12-12T22:11:35.055Z,982.9
2022-12-12T22:14:01.155Z,983
2022-12-12T22:16:27.242Z,982.9
2022-12-12T22:18:52.362Z,983
2022-12-12T22:21:18.471Z,983
2022-12-12T22:23:44.568Z,983
2022-12-12T22:26:10.667Z,983.1
2022-12-12T22:28:36.745Z,983.1
2022-12-12T22:31:02.853Z,983
2022-12-12T22:33:28.951Z,983
2022-12-12T22:35:55.065Z,983
2022-12-12T22:38:21.134Z,983
2022-12-12T22:40:47.258Z,983
2022-12-12T22:43:13.334Z,983
2022-12-12T22:45:39.435Z,983
2022-12-12T22:48:05.551Z,982.9
2022-12-12T22:50:30.650Z,982.9
2022-12-12T22:52:56.859Z,982.9
2022-12-12T22:55:22.850Z,982.8
2022-12-12T22:57:49.017Z,982.9
2022-12-12T23:00:15.064Z,982.9
2022-12-12T23:02:41.143Z,982.9
2022-12-12T23:05:07.230Z,982.9
2022-12-12T23:07:33.335Z,982.8
2022-12-12T23:09:59.434Z,982.8
2022-12-12T23:12:25.540Z,982.8
2022-12-12T23:14:51.620Z,982.8
2022-12-12T23:17:17.759Z,982.7
2022-12-12T23:19:43.825Z,982.7
2022-12-12T23:22:08.971Z,982.7
2022-12-12T23:24:35.107Z,982.7
2022-12-12T23:27:01.252Z,982.6
2022-12-12T23:29:27.235Z,982.6
2022-12-12T23:31:53.378Z,982.7
2022-12-12T23:34:19.459Z,982.7
2022-12-12T23:36:45.534Z,982.6
2022-12-12T23:39:11.630Z,982.6
2022-12-12T23:41:37.742Z,982.6
2022-12-12T23:44:03.842Z,982.5
2022-12-12T23:46:29.944Z,982.6
2022-12-12T23:48:56.054Z,982.5
2022-12-12T23:51:22.132Z,982.4
2022-12-12T23:53:47.235Z,982.4
2022-12-12T23:56:13.334Z,982.4
2022-12-12T23:58:39.450Z,982.3
